Airfield :
LOGIN :

Register | Disclaimer

   EN    FR    IT 

 










Legend :    VFR   Marginal VFR   IFR   Intensive IFR   Very Intensive IFR
Visi :
Ceiling :
>= 8 km
>= 3000ft
5 to 8 km
1000 to 3000 ft
1500m to 5 km
500 to 1000 ft
800 to 1500m
200 to 500 ft
< 800m
< 200 ft
Symbols :   Thunderstorms  Fog  Heavy snow  Heavy precipitations  Wind > 20 kt
SIGMETs :     Misc.  Thunderstorms  Icing  Turbulence  Mountain Waves  Volcanic Ashes






- Airport Elevation : 512 ft
- IATA code : URO


LFOP - Rouen Vallée de Seine

CURRENT METAR :
  • 241300Z AUTO 20015KT 9999 BKN023 BKN029 BKN034 07/04 Q0998 TEMPO 3500 SHRA BKN014 BKN020TCU

EXPIRED METARs :
  • 241230Z AUTO 20016KT 9999 SCT022 SCT034 OVC068 06/03 Q0998 TEMPO 3500 SHRA BKN014 BKN020TCU
  • 241200Z AUTO 20014KT 9999 BKN019 BKN027 BKN066 06/03 Q0999 TEMPO 3500 SHRA BKN014 BKN020TCU
  • 241130Z AUTO 19014KT CAVOK 06/03 Q0999 TEMPO 3500 SHRA BKN014 BKN020TCU
  • 241100Z AUTO 19015KT 9999 SCT016 SCT021 BKN052 06/04 Q0998 TEMPO 3500 SHRA BKN014 BKN020TCU
  • 241030Z AUTO 19015KT 9999 FEW016 SCT047 06/04 Q0998 TEMPO 3500 SHRA BKN014 BKN020TCU
  • 241000Z AUTO 19013KT 9999 BKN012 BKN049 05/03 Q0998 TEMPO 3500 SHRA BKN014 BKN020TCU
  • 240930Z AUTO 19013KT 9999 BKN011 BKN043 BKN054 04/03 Q0998 TEMPO 3500 SHRA BKN014 BKN020TCU
  • 240900Z AUTO 19013KT 9999 FEW033 04/02 Q0998 NOSIG
  • 240830Z AUTO 19012KT CAVOK 03/02 Q0998 TEMPO BKN012 BKN020

TAF TAF LFOP
Valid from the 24 at 12:00 until the 24 at 21:00 UTC


241100Z 2412/2421 19014KT 9999 BKN030
TEMPO 2412/2421 3500 SHRA BKN014 BKN020TCU
PROB30
TEMPO 2415/2421 2000 SHRAGS BKN008 BKN014CB
ATIS : +33 2 35 80 80 34
Met : +33 2 32 86 52 80



MET'MAP, your aeronautical weather chart ! - Copyright ORBIFLY December 2007 - Disclaimer

ORBIFLY MET'MAP TEAM :

Programming & Development : Alexandra Zaïnal
Original concept : Baudouin d'Aumeries
Technical & hardware support : Manuel Goepfert
Assistance : Marc-Olivier Méhu




SOURCES & CREDITS :

   NOAA